Time;durP1;ratioP1;P1;durP2;ratioP2;P2;SDS_P1;SDS_P2;PMS_P1;PMS_P2;Temp;Humidity;BMP_temperature;BMP_pressure;BME280_temperature;BME280_humidity;BME280_pressure;Samples;Min_cycle;Max_cycle;Signal;HPM_P1;HPM_P2
2021/01/03 00:00:24;;;;;;;26.50;11.25;;;7.10;85.90;;;;;;5016585;28;20026;-51
2021/01/03 00:02:51;;;;;;;34.20;12.40;;;7.10;85.90;;;;;;5016458;28;20025;-51
2021/01/03 00:05:21;;;;;;;37.00;13.40;;;7.10;85.80;;;;;;5017450;28;20510;-51
2021/01/03 00:07:47;;;;;;;35.38;12.10;;;7.10;85.90;;;;;;5035250;28;20418;-51
2021/01/03 00:10:13;;;;;;;36.97;13.23;;;7.10;85.90;;;;;;5029436;28;20486;-51
2021/01/03 00:12:39;;;;;;;38.78;13.63;;;7.10;85.80;;;;;;5019859;28;20025;-51
2021/01/03 00:15:11;;;;;;;31.58;12.15;;;7.10;85.80;;;;;;5036363;28;20115;-51
2021/01/03 00:17:38;;;;;;;32.38;12.32;;;7.10;85.80;;;;;;5032779;28;20022;-51
2021/01/03 00:20:08;;;;;;;35.45;12.70;;;7.10;85.80;;;;;;5016391;28;20105;-51
2021/01/03 00:22:33;;;;;;;34.22;13.27;;;7.10;85.80;;;;;;5033602;28;20537;-51
2021/01/03 00:24:59;;;;;;;32.10;11.90;;;7.10;85.90;;;;;;5036535;28;20120;-51
2021/01/03 00:27:25;;;;;;;40.70;12.40;;;7.10;86.00;;;;;;5034769;28;20402;-51
2021/01/03 00:29:51;;;;;;;37.35;11.15;;;7.10;85.90;;;;;;5016283;28;20044;-51
2021/01/03 00:32:17;;;;;;;31.77;11.80;;;7.10;85.90;;;;;;5015698;28;20446;-51
2021/01/03 00:34:42;;;;;;;31.30;11.60;;;7.10;85.90;;;;;;5016234;28;20030;-51
2021/01/03 00:37:08;;;;;;;38.25;12.02;;;7.10;85.90;;;;;;5015942;28;20033;-51
2021/01/03 00:39:33;;;;;;;36.03;12.30;;;7.00;85.80;;;;;;5034364;28;20095;-51
2021/01/03 00:41:59;;;;;;;40.28;13.32;;;7.00;85.80;;;;;;5035057;28;20371;-52
2021/01/03 00:44:25;;;;;;;37.13;12.45;;;7.10;85.90;;;;;;5035940;28;20037;-51
2021/01/03 00:46:51;;;;;;;36.10;11.50;;;7.10;85.90;;;;;;5035709;28;20032;-51
2021/01/03 00:49:17;;;;;;;29.63;11.00;;;7.10;85.90;;;;;;5019653;28;20068;-51
2021/01/03 00:51:42;;;;;;;40.33;13.40;;;7.10;85.80;;;;;;5025828;28;20021;-51
2021/01/03 00:54:08;;;;;;;36.08;12.20;;;7.10;85.90;;;;;;5035342;28;20032;-51
2021/01/03 00:56:34;;;;;;;30.88;12.18;;;7.10;85.90;;;;;;5034382;28;20029;-51
2021/01/03 00:59:00;;;;;;;30.58;12.15;;;7.00;85.80;;;;;;5034920;28;20045;-51
2021/01/03 01:01:25;;;;;;;41.20;11.77;;;7.00;85.80;;;;;;5034806;28;20467;-51
2021/01/03 01:03:51;;;;;;;32.25;11.00;;;7.00;85.90;;;;;;5035399;28;20363;-51
2021/01/03 01:06:18;;;;;;;34.53;12.23;;;7.10;85.90;;;;;;5026103;28;20082;-51
2021/01/03 01:08:44;;;;;;;37.33;11.90;;;7.00;85.90;;;;;;5026153;28;20125;-51
2021/01/03 01:11:09;;;;;;;31.00;10.50;;;7.00;85.90;;;;;;5020790;28;20030;-51
2021/01/03 01:13:35;;;;;;;32.55;13.98;;;7.10;85.90;;;;;;5026677;28;20030;-51
2021/01/03 01:16:02;;;;;;;34.03;11.90;;;7.00;85.90;;;;;;5034415;28;20029;-51
2021/01/03 01:18:28;;;;;;;35.60;12.50;;;7.00;85.80;;;;;;5026260;28;20364;-51
2021/01/03 01:20:53;;;;;;;32.45;12.05;;;7.10;85.80;;;;;;5015079;28;20026;-51
2021/01/03 01:23:19;;;;;;;36.88;12.30;;;7.10;85.80;;;;;;5014758;28;20455;-51
2021/01/03 01:25:45;;;;;;;34.70;11.90;;;7.10;85.80;;;;;;5015292;28;20406;-51
2021/01/03 01:28:10;;;;;;;30.42;12.30;;;7.00;85.80;;;;;;5024333;28;20455;-51
2021/01/03 01:30:37;;;;;;;31.15;12.73;;;7.10;85.90;;;;;;5035058;28;20352;-51
2021/01/03 01:33:04;;;;;;;27.70;11.80;;;7.10;85.90;;;;;;5034497;28;20032;-51
2021/01/03 01:35:32;;;;;;;32.25;12.80;;;7.10;85.90;;;;;;5034755;28;20040;-51
2021/01/03 01:37:58;;;;;;;31.45;11.98;;;7.10;85.90;;;;;;5027110;28;20476;-51
2021/01/03 01:40:29;;;;;;;36.25;12.77;;;7.00;85.90;;;;;;5015129;28;20056;-51
2021/01/03 01:42:55;;;;;;;;;;;7.10;86.00;;;;;;5016192;28;20060;-51
2021/01/03 01:45:26;;;;;;;31.33;11.13;;;7.10;86.00;;;;;;5014885;28;20370;-51
2021/01/03 01:48:00;;;;;;;31.98;11.20;;;7.00;85.90;;;;;;5020753;28;20032;-51
2021/01/03 01:50:45;;;;;;;32.38;12.57;;;7.00;85.90;;;;;;5034469;28;20029;-51
2021/01/03 01:53:24;;;;;;;30.40;11.27;;;7.10;86.00;;;;;;5034070;28;20067;-51
2021/01/03 01:55:59;;;;;;;34.38;11.45;;;7.00;85.90;;;;;;5034532;28;20049;-51
2021/01/03 01:58:51;;;;;;;35.78;11.52;;;7.10;86.00;;;;;;5033892;28;20033;-51
2021/01/03 02:01:21;;;;;;;37.33;11.73;;;7.00;85.90;;;;;;5037109;28;20362;-51
2021/01/03 02:04:00;;;;;;;32.17;11.70;;;7.00;85.80;;;;;;5039896;28;20014;-51
2021/01/03 02:06:39;;;;;;;28.20;10.63;;;7.00;85.80;;;;;;5024059;28;20034;-51
2021/01/03 02:09:16;;;;;;;36.53;11.80;;;7.00;85.90;;;;;;5014291;28;20026;-51
2021/01/03 02:11:42;;;;;;;37.45;13.02;;;7.00;85.90;;;;;;5032843;28;20108;-51
2021/01/03 02:14:10;;;;;;;30.63;11.43;;;7.00;85.90;;;;;;5034075;28;20174;-51
2021/01/03 02:16:37;;;;;;;33.88;11.68;;;7.00;85.90;;;;;;5034028;28;20359;-51
2021/01/03 02:19:11;;;;;;;31.02;12.35;;;7.00;85.80;;;;;;5033123;28;20508;-52
2021/01/03 02:22:02;;;;;;;30.40;10.98;;;7.00;85.90;;;;;;5028118;28;20046;-51
2021/01/03 02:24:35;;;;;;;29.05;11.57;;;7.00;85.90;;;;;;5014206;28;20117;-51
2021/01/03 02:27:07;;;;;;;33.55;11.38;;;7.00;86.00;;;;;;5014219;28;20371;-51
2021/01/03 02:29:35;;;;;;;33.00;10.98;;;7.00;85.90;;;;;;5033104;28;20026;-51
2021/01/03 02:32:03;;;;;;;28.30;11.18;;;7.00;85.90;;;;;;5033391;28;20116;-51
2021/01/03 02:34:38;;;;;;;32.67;11.20;;;7.00;85.90;;;;;;5033592;28;20057;-51
2021/01/03 02:37:08;;;;;;;31.35;10.27;;;7.00;85.90;;;;;;5017656;28;20033;-52
2021/01/03 02:39:52;;;;;;;33.90;10.88;;;7.00;86.00;;;;;;5032490;28;20071;-51
2021/01/03 02:42:23;;;;;;;23.85;9.43;;;7.00;85.90;;;;;;5024728;28;20100;-52
2021/01/03 02:44:49;;;;;;;31.55;10.75;;;7.00;85.90;;;;;;5014048;28;20030;-51
2021/01/03 02:47:15;;;;;;;30.85;11.60;;;7.00;85.80;;;;;;5013748;28;20026;-51
2021/01/03 02:49:41;;;;;;;31.33;13.13;;;7.00;85.90;;;;;;5013702;28;20092;-51
2021/01/03 02:52:13;;;;;;;34.55;10.63;;;7.00;86.00;;;;;;5030698;28;20022;-51
2021/01/03 02:54:38;;;;;;;30.27;10.43;;;7.00;85.90;;;;;;5026186;28;20038;-51
2021/01/03 02:57:05;;;;;;;39.50;11.52;;;7.00;85.90;;;;;;5013537;28;20040;-51
2021/01/03 02:59:30;;;;;;;29.42;10.88;;;7.00;85.90;;;;;;5032879;28;20140;-52
2021/01/03 03:01:56;;;;;;;27.70;10.23;;;7.00;85.90;;;;;;5033149;28;20112;-51
2021/01/03 03:04:22;;;;;;;22.20;9.70;;;7.00;86.00;;;;;;5032773;28;20454;-51
2021/01/03 03:06:47;;;;;;;35.03;11.25;;;7.00;85.90;;;;;;5020240;28;20164;-51
2021/01/03 03:09:13;;;;;;;33.58;10.93;;;7.00;85.90;;;;;;5027161;28;20025;-51
2021/01/03 03:11:38;;;;;;;32.03;11.27;;;7.00;85.90;;;;;;5013533;28;20584;-51
2021/01/03 03:14:04;;;;;;;32.72;11.77;;;7.00;85.90;;;;;;5013498;28;20033;-51
2021/01/03 03:16:30;;;;;;;29.40;10.30;;;7.00;85.90;;;;;;5013566;28;20447;-51
2021/01/03 03:18:55;;;;;;;27.88;10.77;;;7.00;85.90;;;;;;5025165;28;20040;-51
2021/01/03 03:21:21;;;;;;;26.65;10.32;;;7.00;85.90;;;;;;5035619;28;20077;-51
2021/01/03 03:23:47;;;;;;;24.52;10.15;;;7.00;85.90;;;;;;5037269;28;20021;-51
2021/01/03 03:26:13;;;;;;;27.42;11.30;;;7.00;85.90;;;;;;5037305;28;20033;-51
2021/01/03 03:28:39;;;;;;;25.48;9.77;;;7.00;85.90;;;;;;5027564;28;20080;-51
2021/01/03 03:31:05;;;;;;;35.80;12.25;;;7.00;85.90;;;;;;5016494;28;20029;-51
2021/01/03 03:33:31;;;;;;;29.08;9.57;;;7.00;85.90;;;;;;5036342;28;20033;-51
2021/01/03 03:35:56;;;;;;;24.45;9.52;;;7.00;86.00;;;;;;5036986;28;20079;-51
2021/01/03 03:38:22;;;;;;;30.27;11.68;;;7.00;86.00;;;;;;5029888;28;20490;-51
2021/01/03 03:40:48;;;;;;;27.33;10.63;;;7.00;85.90;;;;;;5017159;28;20117;-51
2021/01/03 03:43:13;;;;;;;28.40;9.40;;;7.00;85.90;;;;;;5016897;28;20022;-51
2021/01/03 03:45:39;;;;;;;30.50;11.38;;;7.00;85.90;;;;;;5017110;28;20037;-51
2021/01/03 03:48:06;;;;;;;30.55;10.60;;;7.00;85.90;;;;;;5021044;28;20029;-51
2021/01/03 03:50:32;;;;;;;25.90;10.60;;;7.00;85.90;;;;;;5036712;28;20358;-51
2021/01/03 03:52:57;;;;;;;31.67;10.77;;;7.00;85.90;;;;;;5036564;28;20036;-51
2021/01/03 03:55:23;;;;;;;29.00;10.40;;;7.00;85.90;;;;;;5036611;28;20111;-51
2021/01/03 03:57:49;;;;;;;27.95;10.40;;;7.00;85.90;;;;;;5035923;28;20029;-51
2021/01/03 04:00:21;;;;;;;29.55;11.77;;;7.00;86.00;;;;;;5036447;28;20131;-51
2021/01/03 04:02:47;;;;;;;36.72;12.52;;;7.00;86.00;;;;;;5036433;28;20033;-51
2021/01/03 04:05:17;;;;;;;23.33;10.60;;;7.00;85.90;;;;;;5036435;28;20021;-51
2021/01/03 04:07:42;;;;;;;32.35;10.23;;;7.00;85.90;;;;;;5017138;28;20470;-51
2021/01/03 04:10:09;;;;;;;29.45;11.13;;;7.00;86.60;;;;;;5030277;28;20460;-51
2021/01/03 04:12:36;;;;;;;24.98;11.50;;;7.00;85.80;;;;;;5016134;28;20040;-51
2021/01/03 04:15:10;;;;;;;26.58;10.52;;;7.00;85.80;;;;;;5016848;28;20022;-51
2021/01/03 04:17:35;;;;;;;25.35;10.07;;;7.00;85.80;;;;;;5016474;28;20455;-51
2021/01/03 04:20:02;;;;;;;29.02;10.52;;;7.00;85.80;;;;;;5035167;28;20113;-51
2021/01/03 04:22:29;;;;;;;26.75;10.80;;;7.00;86.60;;;;;;5035652;28;20120;-51
2021/01/03 04:24:56;;;;;;;28.58;10.00;;;7.00;85.90;;;;;;5036132;28;20022;-51
2021/01/03 04:27:22;;;;;;;26.13;10.60;;;7.00;85.80;;;;;;5025797;28;20108;-51
2021/01/03 04:29:48;;;;;;;29.02;9.25;;;7.00;85.90;;;;;;5033003;28;20125;-51
2021/01/03 04:32:13;;;;;;;26.13;9.93;;;7.00;85.90;;;;;;5035347;28;20025;-51
2021/01/03 04:34:42;;;;;;;22.40;10.23;;;7.00;85.90;;;;;;5035866;28;20036;-51
2021/01/03 04:37:08;;;;;;;24.05;11.13;;;7.00;86.00;;;;;;5023249;28;20427;-51
2021/01/03 04:39:34;;;;;;;28.33;11.23;;;7.00;86.00;;;;;;5030591;28;20451;-51
2021/01/03 04:42:09;;;;;;;26.40;10.18;;;7.00;86.00;;;;;;5035190;28;20033;-51
2021/01/03 04:44:37;;;;;;;26.08;10.48;;;7.00;86.00;;;;;;5035883;28;20025;-51
2021/01/03 04:47:13;;;;;;;30.42;11.07;;;7.00;86.00;;;;;;5035747;28;20497;-51
2021/01/03 04:49:50;;;;;;;23.67;10.02;;;7.00;86.00;;;;;;5020690;28;20053;-51
2021/01/03 04:53:04;;;;;;;27.15;10.40;;;7.00;86.00;;;;;;5030111;28;20106;-51
2021/01/03 04:55:33;;;;;;;25.02;10.00;;;7.00;86.00;;;;;;5028854;28;20428;-52
2021/01/03 04:58:14;;;;;;;32.33;11.02;;;7.00;85.90;;;;;;5015867;28;20551;-51
2021/01/03 05:01:06;;;;;;;26.80;9.68;;;7.00;85.90;;;;;;5015780;28;20052;-52
2021/01/03 05:04:08;;;;;;;27.30;10.45;;;7.00;85.80;;;;;;5019596;28;20088;-51
2021/01/03 05:06:35;;;;;;;23.52;9.85;;;7.00;85.80;;;;;;5029398;28;20471;-51
2021/01/03 05:09:06;;;;;;;28.05;11.43;;;7.00;85.70;;;;;;5022682;28;20088;-51
2021/01/03 05:11:47;;;;;;;23.92;9.02;;;7.00;85.60;;;;;;5017509;28;20113;-51
2021/01/03 05:14:13;;;;;;;21.95;8.82;;;7.00;85.50;;;;;;5015547;28;20034;-52
2021/01/03 05:16:38;;;;;;;29.30;9.77;;;7.00;85.50;;;;;;5015468;28;20026;-52
2021/01/03 05:19:04;;;;;;;27.83;9.40;;;7.00;85.50;;;;;;5027754;28;20033;-52
2021/01/03 05:21:57;;;;;;;23.27;9.88;;;7.10;85.50;;;;;;5034551;28;20095;-51
2021/01/03 05:24:25;;;;;;;23.00;9.02;;;7.00;85.50;;;;;;5035632;28;20042;-51
2021/01/03 05:26:51;;;;;;;26.75;9.68;;;7.00;85.40;;;;;;5034969;28;20033;-52
2021/01/03 05:29:26;;;;;;;29.27;9.82;;;7.10;85.50;;;;;;5019463;28;20097;-51
2021/01/03 05:32:03;;;;;;;25.50;10.82;;;7.00;85.40;;;;;;5015353;28;20037;-51
2021/01/03 05:34:37;;;;;;;28.27;11.23;;;7.10;85.40;;;;;;5035203;28;20025;-51
2021/01/03 05:37:26;;;;;;;33.47;10.63;;;7.00;85.40;;;;;;5034767;28;20084;-52
2021/01/03 05:39:52;;;;;;;27.00;10.52;;;7.00;85.30;;;;;;5015000;28;20036;-51
2021/01/03 05:42:21;;;;;;;29.50;11.40;;;7.10;85.40;;;;;;5014428;28;20057;-52
2021/01/03 05:45:09;;;;;;;28.42;10.20;;;7.10;85.50;;;;;;5015191;28;20018;-51
2021/01/03 05:47:53;;;;;;;31.45;9.57;;;7.00;85.30;;;;;;5015444;28;20018;-51
2021/01/03 05:50:22;;;;;;;30.27;9.23;;;7.00;85.30;;;;;;5033927;28;20022;-51
2021/01/03 05:53:08;;;;;;;21.63;8.38;;;7.10;85.40;;;;;;5033937;28;20049;-52
2021/01/03 05:55:36;;;;;;;30.77;10.52;;;7.10;85.40;;;;;;5034521;28;20359;-51
2021/01/03 05:58:20;;;;;;;25.88;9.40;;;7.10;85.30;;;;;;5033874;28;20029;-51
2021/01/03 06:00:47;;;;;;;25.90;9.05;;;7.10;85.30;;;;;;5032632;28;20116;-52
2021/01/03 06:03:18;;;;;;;28.58;10.68;;;7.10;85.30;;;;;;5030857;28;20028;-51
2021/01/03 06:05:53;;;;;;;28.00;10.02;;;7.10;85.30;;;;;;5018731;28;20526;-52
2021/01/03 06:08:28;;;;;;;30.25;10.68;;;7.00;85.20;;;;;;5033829;28;20108;-51
2021/01/03 06:10:54;;;;;;;29.05;8.82;;;7.10;85.30;;;;;;5022003;28;20104;-51
2021/01/03 06:13:24;;;;;;;29.83;9.90;;;7.10;85.30;;;;;;5013919;28;20033;-51
2021/01/03 06:16:00;;;;;;;25.98;9.80;;;7.10;85.30;;;;;;5014343;28;20026;-52
2021/01/03 06:18:47;;;;;;;30.50;10.45;;;7.10;85.20;;;;;;5021340;28;20060;-52
2021/01/03 06:21:27;;;;;;;27.65;10.60;;;7.10;85.20;;;;;;5033804;28;20113;-51
2021/01/03 06:24:08;;;;;;;26.13;10.73;;;7.10;85.20;;;;;;5033416;28;20095;-51
2021/01/03 06:26:35;;;;;;;;;;;7.10;85.20;;;;;;5025716;28;20084;-51
2021/01/03 06:29:08;;;;;;;24.20;9.27;;;7.10;85.30;;;;;;5025580;28;19908;-52
2021/01/03 06:31:43;;;;;;;25.40;9.82;;;7.10;85.30;;;;;;5033371;28;20025;-51
2021/01/03 06:34:29;;;;;;;27.48;9.18;;;7.10;85.30;;;;;;5033360;28;20109;-51
2021/01/03 06:37:06;;;;;;;26.38;9.25;;;7.10;85.20;;;;;;5033445;28;20022;-51
2021/01/03 06:39:50;;;;;;;31.63;10.13;;;7.10;85.30;;;;;;5017903;28;20103;-51
2021/01/03 06:42:21;;;;;;;25.20;10.05;;;7.10;85.30;;;;;;5033129;28;20041;-51
2021/01/03 06:45:13;;;;;;;23.65;9.55;;;7.10;85.30;;;;;;5033532;28;20057;-51
2021/01/03 06:47:50;;;;;;;27.67;9.77;;;7.10;85.30;;;;;;5041195;28;20025;-51
2021/01/03 06:50:55;;;;;;;29.30;9.98;;;7.10;86.00;;;;;;5013828;28;20033;-51
2021/01/03 06:54:03;;;;;;;30.15;9.82;;;7.10;85.30;;;;;;5022166;28;20029;-52
2021/01/03 06:56:34;;;;;;;31.65;10.73;;;7.10;85.20;;;;;;5033128;28;20030;-51
2021/01/03 06:59:05;;;;;;;26.77;9.98;;;7.10;85.20;;;;;;5032656;28;20034;-51
2021/01/03 07:01:37;;;;;;;24.95;10.18;;;7.10;85.20;;;;;;5033145;28;20045;-51
2021/01/03 07:04:18;;;;;;;22.05;8.63;;;7.10;85.20;;;;;;5033378;28;20022;-51
2021/01/03 07:06:45;;;;;;;28.55;11.30;;;7.10;85.20;;;;;;5020699;28;20030;-51
2021/01/03 07:09:13;;;;;;;22.98;9.98;;;7.10;85.20;;;;;;5024957;28;20477;-51
2021/01/03 07:11:52;;;;;;;24.13;8.75;;;7.10;85.20;;;;;;5026559;28;20087;-51
2021/01/03 07:14:23;;;;;;;23.92;8.80;;;7.10;85.20;;;;;;5033151;28;20077;-51
2021/01/03 07:17:14;;;;;;;27.05;9.68;;;7.10;85.20;;;;;;5032452;28;20033;-51
2021/01/03 07:19:49;;;;;;;24.85;9.80;;;7.10;85.20;;;;;;5018941;28;20050;-51
2021/01/03 07:22:21;;;;;;;34.00;10.40;;;7.10;85.20;;;;;;5012934;28;20068;-51
2021/01/03 07:24:50;;;;;;;25.95;10.15;;;7.10;85.20;;;;;;5013465;28;20032;-51
2021/01/03 07:27:35;;;;;;;24.55;9.43;;;7.10;85.20;;;;;;5013296;28;20021;-51
2021/01/03 07:30:03;;;;;;;25.27;8.75;;;7.10;85.20;;;;;;5029612;28;20109;-51
2021/01/03 07:32:32;;;;;;;24.55;9.48;;;7.10;85.20;;;;;;5032258;28;20039;-51
2021/01/03 07:35:00;;;;;;;24.20;9.00;;;7.10;85.20;;;;;;5032955;28;20392;-51
2021/01/03 07:37:28;;;;;;;24.25;9.63;;;7.10;85.20;;;;;;5033061;28;20041;-51
2021/01/03 07:40:15;;;;;;;30.25;10.13;;;7.10;85.20;;;;;;5021447;28;20029;-51
2021/01/03 07:42:44;;;;;;;19.02;8.50;;;7.10;85.20;;;;;;5032343;28;20459;-51
2021/01/03 07:45:20;;;;;;;25.35;9.02;;;7.10;85.20;;;;;;5032804;28;20120;-51
2021/01/03 07:47:54;;;;;;;28.60;10.55;;;7.10;85.20;;;;;;5032062;28;20117;-51
2021/01/03 07:50:38;;;;;;;26.17;10.07;;;7.10;85.20;;;;;;5015312;28;20030;-51
2021/01/03 07:53:36;;;;;;;26.58;9.48;;;7.10;85.20;;;;;;5018402;28;20454;-51
2021/01/03 07:56:18;;;;;;;28.13;9.65;;;7.10;85.20;;;;;;5033118;28;20405;-51
2021/01/03 07:58:49;;;;;;;25.70;10.32;;;7.10;85.20;;;;;;5032245;28;20022;-51
2021/01/03 08:01:16;;;;;;;21.77;9.65;;;7.10;85.20;;;;;;5032617;28;20029;-51
2021/01/03 08:03:42;;;;;;;30.00;10.68;;;7.10;85.20;;;;;;5021916;28;20045;-51
2021/01/03 08:06:10;;;;;;;25.42;10.00;;;7.10;85.20;;;;;;5021696;28;20041;-51
2021/01/03 08:08:35;;;;;;;22.17;8.23;;;7.10;85.20;;;;;;5035632;28;20116;-51
2021/01/03 08:11:23;;;;;;;25.35;9.68;;;7.10;85.20;;;;;;5023114;28;20169;-51
2021/01/03 08:13:55;;;;;;;22.85;9.32;;;7.10;85.20;;;;;;5027270;28;20056;-51
2021/01/03 08:16:24;;;;;;;25.77;10.00;;;7.10;85.20;;;;;;5036259;28;20036;-51
2021/01/03 08:18:58;;;;;;;23.25;9.00;;;7.10;85.10;;;;;;5031357;28;20240;-51
2021/01/03 08:21:23;;;;;;;21.67;9.25;;;7.10;85.20;;;;;;5016140;28;20464;-52
2021/01/03 08:23:49;;;;;;;28.50;10.77;;;7.10;85.10;;;;;;5016530;28;20030;-51
2021/01/03 08:26:26;;;;;;;20.80;8.65;;;7.10;85.10;;;;;;5019355;28;20135;-51
2021/01/03 08:29:03;;;;;;;28.90;8.45;;;7.10;85.10;;;;;;5030422;28;20038;-51
2021/01/03 08:31:30;;;;;;;28.25;9.50;;;7.20;85.10;;;;;;5027284;28;20262;-51
2021/01/03 08:33:58;;;;;;;20.45;8.73;;;7.20;85.10;;;;;;5035741;28;20100;-51
2021/01/03 08:36:35;;;;;;;21.35;8.02;;;7.20;85.10;;;;;;5036025;28;20083;-52
2021/01/03 08:39:08;;;;;;;18.35;8.70;;;7.20;85.10;;;;;;5035593;28;20033;-51
2021/01/03 08:41:38;;;;;;;22.67;9.30;;;7.20;85.20;;;;;;5024237;28;20049;-51
2021/01/03 08:44:05;;;;;;;22.00;8.73;;;7.20;85.00;;;;;;5018436;28;20447;-51
2021/01/03 08:46:33;;;;;;;21.95;8.00;;;7.20;85.10;;;;;;5028647;28;20034;-51
2021/01/03 08:49:10;;;;;;;17.35;7.72;;;7.20;85.10;;;;;;5035542;28;20021;-51
2021/01/03 08:51:36;;;;;;;19.48;7.28;;;7.20;85.10;;;;;;5024671;28;20511;-52
2021/01/03 08:54:08;;;;;;;19.08;8.55;;;7.20;85.00;;;;;;5017282;28;20021;-51
2021/01/03 08:56:46;;;;;;;22.30;8.65;;;7.20;85.00;;;;;;5026617;28;20433;-51
2021/01/03 08:59:15;;;;;;;19.75;7.93;;;7.20;85.00;;;;;;5032284;28;20038;-51
2021/01/03 09:01:41;;;;;;;22.92;7.90;;;7.30;85.00;;;;;;5034372;28;20045;-52
2021/01/03 09:04:11;;;;;;;20.38;8.88;;;7.20;85.00;;;;;;5034899;28;20025;-51
2021/01/03 09:06:38;;;;;;;21.85;9.20;;;7.30;85.00;;;;;;5035444;28;20033;-51
2021/01/03 09:09:20;;;;;;;22.65;8.55;;;7.20;84.90;;;;;;5034437;28;20057;-51
2021/01/03 09:11:55;;;;;;;18.90;8.90;;;7.30;85.00;;;;;;5029717;28;20338;-52
2021/01/03 09:14:35;;;;;;;18.55;7.57;;;7.30;85.00;;;;;;5034995;28;20087;-51
2021/01/03 09:17:16;;;;;;;22.00;8.98;;;7.30;85.00;;;;;;5034875;28;20032;-51
2021/01/03 09:20:00;;;;;;;22.38;8.73;;;7.30;85.00;;;;;;5034700;28;20075;-51
2021/01/03 09:22:26;;;;;;;20.48;7.90;;;7.30;85.00;;;;;;5033876;28;20037;-51
2021/01/03 09:25:14;;;;;;;17.85;7.05;;;7.30;85.00;;;;;;5035122;28;20469;-51
2021/01/03 09:27:41;;;;;;;24.40;8.82;;;7.30;85.00;;;;;;5026162;28;20029;-51
2021/01/03 09:30:19;;;;;;;19.85;7.88;;;7.30;84.90;;;;;;5028756;28;20040;-51
2021/01/03 09:32:48;;;;;;;23.42;7.10;;;7.30;85.00;;;;;;5018167;28;20065;-51
2021/01/03 09:35:19;;;;;;;21.08;8.18;;;7.30;85.00;;;;;;5014731;28;20088;-51
2021/01/03 09:38:02;;;;;;;18.90;8.05;;;7.30;85.00;;;;;;5027608;28;20033;-51
2021/01/03 09:40:43;;;;;;;12.32;6.07;;;7.30;84.90;;;;;;5033401;28;20040;-51
2021/01/03 09:43:36;;;;;;;20.35;7.13;;;7.30;84.90;;;;;;5033011;28;20455;-51
2021/01/03 09:46:25;;;;;;;15.02;7.07;;;7.40;84.90;;;;;;5026346;28;20108;-51
2021/01/03 09:48:51;;;;;;;14.57;6.65;;;7.40;84.90;;;;;;5014457;28;20037;-51
2021/01/03 09:51:32;;;;;;;13.52;6.07;;;7.40;84.90;;;;;;5021276;28;20152;-51
2021/01/03 09:54:12;;;;;;;14.55;6.78;;;7.40;84.90;;;;;;5033857;28;20029;-51
2021/01/03 09:56:39;;;;;;;17.58;7.10;;;7.40;85.60;;;;;;5026504;28;20026;-51
2021/01/03 09:59:17;;;;;;;13.07;5.35;;;7.40;84.80;;;;;;5024357;28;20519;-51
2021/01/03 10:01:45;;;;;;;13.60;5.88;;;7.40;84.80;;;;;;5018614;28;20037;-51
2021/01/03 10:04:28;;;;;;;17.23;7.85;;;7.40;84.80;;;;;;5034342;28;20040;-51
2021/01/03 10:06:56;;;;;;;14.02;5.68;;;7.40;84.80;;;;;;5033208;28;20087;-51
2021/01/03 10:09:24;;;;;;;19.67;7.15;;;7.40;84.80;;;;;;5033826;28;20474;-51
2021/01/03 10:11:51;;;;;;;17.98;6.88;;;7.40;84.80;;;;;;5025291;28;20033;-51
2021/01/03 10:14:35;;;;;;;17.83;6.22;;;7.40;84.80;;;;;;5017405;28;20026;-51
2021/01/03 10:17:19;;;;;;;14.68;6.65;;;7.40;84.70;;;;;;5019649;28;20034;-51
2021/01/03 10:19:45;;;;;;;21.85;7.60;;;7.40;84.70;;;;;;5014281;28;20455;-52
2021/01/03 10:22:35;;;;;;;13.30;6.05;;;7.40;84.70;;;;;;5016615;28;20052;-51
2021/01/03 10:25:05;;;;;;;15.23;6.87;;;7.40;84.70;;;;;;5013939;28;20439;-51
2021/01/03 10:27:31;;;;;;;14.82;6.20;;;7.50;84.80;;;;;;5016340;28;20037;-51
2021/01/03 10:29:57;;;;;;;13.65;5.93;;;7.50;84.70;;;;;;5019653;28;20112;-51
2021/01/03 10:32:23;;;;;;;14.68;6.25;;;7.50;84.70;;;;;;5026346;28;20032;-51
2021/01/03 10:34:49;;;;;;;16.67;6.25;;;7.40;84.70;;;;;;5028643;28;20083;-51
2021/01/03 10:37:15;;;;;;;14.27;6.40;;;7.50;84.70;;;;;;5018159;28;20096;-52
2021/01/03 10:39:41;;;;;;;12.48;5.72;;;7.50;84.70;;;;;;5019367;28;20033;-51
2021/01/03 10:42:11;;;;;;;14.52;6.20;;;7.50;84.70;;;;;;5021508;28;20589;-51
2021/01/03 10:44:37;;;;;;;14.07;5.95;;;7.50;84.70;;;;;;5033470;28;20398;-52
2021/01/03 10:47:03;;;;;;;16.38;6.65;;;7.50;84.60;;;;;;5033457;28;20083;-51
2021/01/03 10:49:29;;;;;;;13.02;6.10;;;7.50;84.60;;;;;;5033067;28;20031;-51
2021/01/03 10:51:55;;;;;;;13.35;6.25;;;7.50;84.60;;;;;;5021918;28;20116;-51
2021/01/03 10:54:25;;;;;;;16.33;6.95;;;7.50;84.60;;;;;;5029848;28;20465;-51
2021/01/03 10:56:53;;;;;;;16.65;6.80;;;7.50;84.60;;;;;;5020186;28;20033;-52
2021/01/03 10:59:19;;;;;;;13.82;6.85;;;7.50;84.50;;;;;;5013628;28;20024;-51
2021/01/03 11:01:46;;;;;;;14.40;7.20;;;7.50;84.50;;;;;;5013261;28;20038;-51
2021/01/03 11:04:12;;;;;;;13.65;5.97;;;7.60;84.50;;;;;;5013067;28;20025;-51
2021/01/03 11:06:40;;;;;;;13.77;6.07;;;7.50;84.50;;;;;;5026367;28;20115;-51
2021/01/03 11:09:08;;;;;;;22.55;7.55;;;7.50;84.40;;;;;;5026981;28;20018;-51
2021/01/03 11:11:34;;;;;;;16.67;7.63;;;7.60;84.40;;;;;;5030040;28;20033;-51
2021/01/03 11:14:00;;;;;;;20.40;7.80;;;7.60;84.40;;;;;;5033074;28;20029;-51
2021/01/03 11:16:34;;;;;;;18.75;8.25;;;7.60;84.40;;;;;;5032848;28;20473;-51
2021/01/03 11:19:00;;;;;;;11.60;6.18;;;7.60;84.40;;;;;;5032978;28;20045;-51
2021/01/03 11:21:26;;;;;;;16.77;6.35;;;7.60;84.40;;;;;;5031076;28;20029;-51
2021/01/03 11:23:51;;;;;;;23.42;7.50;;;7.60;84.30;;;;;;5033016;28;20427;-52
2021/01/03 11:26:25;;;;;;;24.98;7.60;;;7.60;84.30;;;;;;5032744;28;20037;-51
2021/01/03 11:28:51;;;;;;;16.30;7.05;;;7.60;84.30;;;;;;5032862;28;20013;-51
2021/01/03 11:31:17;;;;;;;21.25;6.93;;;7.60;84.30;;;;;;5027188;28;20053;-52
2021/01/03 11:33:42;;;;;;;12.02;5.68;;;7.60;84.30;;;;;;5032558;28;20446;-51
2021/01/03 11:36:10;;;;;;;16.77;6.60;;;7.60;84.30;;;;;;5032406;28;20033;-51
2021/01/03 11:38:36;;;;;;;16.95;6.32;;;7.70;84.30;;;;;;5033284;28;20316;-51
2021/01/03 11:41:02;;;;;;;16.20;6.85;;;7.70;84.30;;;;;;5031280;28;20129;-51
2021/01/03 11:43:28;;;;;;;20.23;8.13;;;7.70;84.30;;;;;;5016865;28;20101;-52
2021/01/03 11:45:53;;;;;;;22.63;8.32;;;7.70;84.30;;;;;;5016692;28;20031;-51
2021/01/03 11:48:19;;;;;;;23.63;6.85;;;7.70;84.40;;;;;;5015445;28;20430;-51
2021/01/03 11:50:44;;;;;;;22.13;8.38;;;7.70;84.60;;;;;;5031007;28;20125;-51
2021/01/03 11:53:10;;;;;;;16.50;7.10;;;7.60;84.30;;;;;;5023111;28;20053;-51
2021/01/03 11:55:36;;;;;;;18.67;7.38;;;7.70;84.30;;;;;;5025689;28;20064;-51
2021/01/03 11:58:01;;;;;;;21.40;7.57;;;7.70;84.30;;;;;;5016812;28;20037;-52
2021/01/03 12:00:27;;;;;;;17.42;6.88;;;7.70;84.30;;;;;;5016076;28;20029;-52
2021/01/03 12:02:53;;;;;;;19.50;7.30;;;7.70;84.30;;;;;;5033334;28;20080;-51
2021/01/03 12:05:20;;;;;;;19.70;7.10;;;7.70;84.30;;;;;;5036653;28;20025;-51
2021/01/03 12:07:46;;;;;;;16.45;5.88;;;7.70;84.30;;;;;;5018616;28;20030;-51
2021/01/03 12:10:12;;;;;;;14.00;6.43;;;7.70;84.30;;;;;;5022999;28;20028;-51
2021/01/03 12:12:38;;;;;;;14.85;7.65;;;7.70;84.30;;;;;;5035135;28;20025;-51
2021/01/03 12:15:05;;;;;;;18.08;7.38;;;7.70;84.40;;;;;;5035954;28;20036;-52
2021/01/03 12:17:30;;;;;;;19.80;7.72;;;7.70;84.30;;;;;;5031405;28;20117;-51
2021/01/03 12:19:57;;;;;;;39.83;10.98;;;7.70;84.40;;;;;;5015790;28;20531;-51
2021/01/03 12:22:23;;;;;;;26.45;9.57;;;7.70;84.40;;;;;;5027758;28;20119;-51
2021/01/03 12:24:48;;;;;;;15.98;7.00;;;7.70;84.40;;;;;;5020227;28;20061;-51
2021/01/03 12:27:16;;;;;;;18.60;7.88;;;7.70;84.40;;;;;;5024063;28;20029;-51
2021/01/03 12:29:42;;;;;;;16.30;6.25;;;7.70;84.40;;;;;;5023009;28;20406;-51
2021/01/03 12:32:09;;;;;;;27.08;7.28;;;7.70;84.40;;;;;;5020836;28;20464;-51
2021/01/03 12:34:36;;;;;;;18.10;6.03;;;7.70;84.40;;;;;;5025537;28;20342;-51
2021/01/03 12:37:01;;;;;;;13.98;6.28;;;7.70;84.40;;;;;;5024893;28;20025;-52
2021/01/03 12:39:27;;;;;;;19.23;5.95;;;7.70;84.40;;;;;;5023925;28;20029;-51
2021/01/03 12:41:53;;;;;;;13.25;5.50;;;7.70;84.40;;;;;;5023933;28;20033;-52
2021/01/03 12:44:19;;;;;;;15.93;6.15;;;7.60;84.30;;;;;;5029248;28;20526;-51
2021/01/03 12:46:44;;;;;;;12.48;5.82;;;7.70;85.10;;;;;;5024742;28;20026;-51
2021/01/03 12:49:11;;;;;;;13.75;6.32;;;7.70;84.30;;;;;;5026269;28;20029;-51
2021/01/03 12:51:37;;;;;;;15.55;6.72;;;7.70;84.30;;;;;;5024020;28;20098;-51
2021/01/03 12:54:04;;;;;;;17.50;7.20;;;7.70;84.30;;;;;;5025435;28;20014;-51
2021/01/03 12:56:30;;;;;;;16.35;7.18;;;7.70;84.30;;;;;;5025246;28;20022;-51
2021/01/03 12:59:03;;;;;;;14.52;5.20;;;7.70;84.30;;;;;;5025245;28;20026;-51
2021/01/03 13:01:33;;;;;;;13.93;5.00;;;7.70;84.30;;;;;;5022202;28;20455;-51